createdAt,value
2018-11-12T00:00:20.273Z,7.20
2018-11-12T00:02:50.488Z,7.17
2018-11-12T00:05:19.820Z,7.37
2018-11-12T00:07:48.947Z,7.53
2018-11-12T00:10:17.470Z,7.93
2018-11-12T00:12:46.366Z,7.40
2018-11-12T00:15:15.615Z,7.77
2018-11-12T00:17:44.101Z,7.37
2018-11-12T00:20:13.916Z,7.57
2018-11-12T00:22:43.552Z,7.73
2018-11-12T00:25:12.131Z,8.67
2018-11-12T00:27:42.114Z,7.40
2018-11-12T00:30:18.795Z,7.33
2018-11-12T00:32:48.054Z,7.27
2018-11-12T00:35:16.732Z,7.57
2018-11-12T00:37:46.576Z,7.20
2018-11-12T00:40:18.741Z,6.90
2018-11-12T00:42:47.626Z,7.07
2018-11-12T00:45:16.822Z,7.33
2018-11-12T00:47:45.758Z,7.03
2018-11-12T00:50:15.274Z,7.50
2018-11-12T00:52:44.852Z,7.67
2018-11-12T00:55:14.558Z,6.47
2018-11-12T00:57:43.461Z,7.00
2018-11-12T01:00:14.620Z,7.10
2018-11-12T01:02:48.461Z,7.47
2018-11-12T01:05:17.937Z,7.43
2018-11-12T01:07:47.448Z,7.13
2018-11-12T01:10:17.183Z,6.93
2018-11-12T01:12:46.380Z,6.87
2018-11-12T01:15:16.416Z,7.30
2018-11-12T01:17:45.580Z,8.00
2018-11-12T01:20:15.072Z,7.53
2018-11-12T01:22:43.898Z,8.27
2018-11-12T01:25:13.375Z,7.93
2018-11-12T01:27:42.790Z,8.57
2018-11-12T01:30:14.137Z,7.97
2018-11-12T01:32:42.957Z,7.83
2018-11-12T01:35:13.368Z,7.63
2018-11-12T01:37:42.019Z,7.47
2018-11-12T01:40:11.918Z,7.57
2018-11-12T01:42:40.828Z,7.63
2018-11-12T01:45:12.600Z,7.80
2018-11-12T01:47:41.472Z,7.80
2018-11-12T01:50:11.381Z,7.53
2018-11-12T01:52:40.317Z,7.97
2018-11-12T01:55:09.964Z,8.00
2018-11-12T01:57:39.389Z,7.90
2018-11-12T02:00:15.053Z,8.13
2018-11-12T02:02:45.162Z,7.50
2018-11-12T02:05:13.789Z,7.47
2018-11-12T02:07:42.922Z,7.43
2018-11-12T02:10:13.059Z,7.53
2018-11-12T02:12:42.020Z,7.27
2018-11-12T02:15:13.430Z,7.40
2018-11-12T02:17:42.567Z,6.93
2018-11-12T02:20:12.907Z,6.93
2018-11-12T02:22:42.179Z,6.13
2018-11-12T02:25:11.652Z,7.77
2018-11-12T02:27:40.149Z,8.03
2018-11-12T02:30:11.839Z,7.30
2018-11-12T02:32:40.594Z,7.73
2018-11-12T02:35:10.040Z,7.40
2018-11-12T02:37:39.230Z,7.50
2018-11-12T02:40:10.068Z,7.70
2018-11-12T02:42:38.760Z,8.10
2018-11-12T02:45:09.044Z,8.73
2018-11-12T02:47:38.025Z,7.17
2018-11-12T02:50:08.067Z,8.23
2018-11-12T02:52:36.618Z,8.83
2018-11-12T02:55:06.476Z,7.77
2018-11-12T02:57:35.044Z,8.57
2018-11-12T03:00:04.199Z,9.20
2018-11-12T03:02:32.850Z,9.13
2018-11-12T03:05:01.335Z,9.23
2018-11-12T03:07:29.905Z,10.73
2018-11-12T03:09:58.488Z,9.87
2018-11-12T03:12:27.736Z,10.20
2018-11-12T03:14:56.679Z,10.93
2018-11-12T03:17:25.214Z,10.10
2018-11-12T03:19:53.708Z,11.50
2018-11-12T03:22:22.925Z,10.90
2018-11-12T03:24:51.585Z,9.87
2018-11-12T03:27:20.102Z,10.97
2018-11-12T03:29:48.705Z,9.60
2018-11-12T03:32:17.253Z,10.10
2018-11-12T03:34:45.967Z,9.70
2018-11-12T03:37:14.916Z,9.93
2018-11-12T03:39:43.566Z,10.60
2018-11-12T03:42:12.132Z,9.47
2018-11-12T03:44:40.929Z,9.60
2018-11-12T03:47:09.599Z,10.23
2018-11-12T03:49:38.997Z,9.73
2018-11-12T03:52:07.600Z,10.27
2018-11-12T03:54:36.080Z,8.33
2018-11-12T03:57:04.918Z,8.23
2018-11-12T03:59:33.552Z,9.63
2018-11-12T04:02:02.105Z,9.03
2018-11-12T04:04:30.624Z,8.23
2018-11-12T04:06:59.174Z,7.83
2018-11-12T04:09:28.572Z,8.80
2018-11-12T04:11:57.088Z,7.43
2018-11-12T04:14:26.098Z,7.10
2018-11-12T04:16:54.793Z,7.37
2018-11-12T04:19:23.394Z,7.77
2018-11-12T04:21:51.954Z,6.57
2018-11-12T04:24:20.562Z,7.23
2018-11-12T04:26:49.157Z,8.93
2018-11-12T04:29:17.736Z,7.40
2018-11-12T04:31:46.294Z,8.97
2018-11-12T04:34:14.779Z,7.60
2018-11-12T04:36:43.288Z,6.70
2018-11-12T04:39:11.849Z,6.90
2018-11-12T04:41:40.965Z,6.43
2018-11-12T04:44:09.518Z,6.47
2018-11-12T04:46:38.031Z,7.10
2018-11-12T04:49:06.631Z,5.87
2018-11-12T04:51:35.976Z,6.43
2018-11-12T04:54:05.293Z,7.27
2018-11-12T04:56:33.959Z,7.83
2018-11-12T04:59:02.523Z,8.17
2018-11-12T05:01:31.049Z,7.17
2018-11-12T05:03:59.669Z,7.83
2018-11-12T05:06:28.257Z,7.63
2018-11-12T05:08:57.044Z,26.13
2018-11-12T05:11:25.837Z,21.40
2018-11-12T05:13:55.134Z,12.30
2018-11-12T05:16:23.788Z,10.03
2018-11-12T05:18:52.421Z,7.90
2018-11-12T05:21:20.988Z,31.23
2018-11-12T05:23:49.481Z,111.63
2018-11-12T05:26:18.033Z,39.20
2018-11-12T05:28:47.376Z,17.67
2018-11-12T05:31:15.934Z,11.10
2018-11-12T05:33:44.512Z,11.67
2018-11-12T05:36:13.075Z,9.60
2018-11-12T05:38:41.611Z,10.10
2018-11-12T05:41:10.530Z,10.53
2018-11-12T05:43:39.225Z,10.47
2018-11-12T05:46:07.979Z,8.93
2018-11-12T05:48:36.543Z,8.50
2018-11-12T05:51:05.452Z,9.03
2018-11-12T05:53:34.168Z,8.27
2018-11-12T05:56:03.033Z,9.93
2018-11-12T05:58:32.361Z,8.07
2018-11-12T06:01:01.356Z,11.57
2018-11-12T06:03:30.629Z,10.23
2018-11-12T06:05:59.188Z,11.50
2018-11-12T06:08:27.912Z,9.03
2018-11-12T06:10:56.472Z,7.93
2018-11-12T06:13:25.021Z,8.20
2018-11-12T06:15:53.636Z,6.77
2018-11-12T06:18:22.817Z,7.80
2018-11-12T06:20:51.433Z,8.10
2018-11-12T06:23:20.174Z,7.10
2018-11-12T06:25:48.829Z,5.87
2018-11-12T06:28:18.091Z,6.00
2018-11-12T06:30:46.848Z,6.90
2018-11-12T06:33:15.598Z,6.23
2018-11-12T06:35:44.328Z,6.53
2018-11-12T06:38:13.076Z,6.63
2018-11-12T06:40:42.192Z,5.67
2018-11-12T06:43:10.745Z,7.47
2018-11-12T06:45:39.529Z,8.37
2018-11-12T06:48:08.132Z,9.50
2018-11-12T06:50:36.733Z,8.00
2018-11-12T06:53:05.603Z,7.43
2018-11-12T06:55:34.215Z,7.77
2018-11-12T06:58:07.613Z,8.57
2018-11-12T07:00:37.108Z,6.27
2018-11-12T07:03:05.632Z,5.57
2018-11-12T07:05:34.304Z,5.63
2018-11-12T07:08:03.003Z,5.90
2018-11-12T07:10:31.686Z,5.67
2018-11-12T07:13:00.948Z,6.50
2018-11-12T07:15:29.890Z,5.60
2018-11-12T07:17:58.625Z,5.33
2018-11-12T07:20:28.036Z,5.10
2018-11-12T07:22:56.637Z,8.93
2018-11-12T07:25:26.907Z,5.67
2018-11-12T07:27:55.529Z,6.40
2018-11-12T07:30:25.572Z,7.53
2018-11-12T07:32:55.595Z,7.70
2018-11-12T07:35:25.437Z,6.93
2018-11-12T07:37:54.923Z,7.77
2018-11-12T07:40:24.762Z,7.70
2018-11-12T07:42:53.306Z,7.97
2018-11-12T07:45:23.943Z,7.20
2018-11-12T07:47:53.577Z,9.10
2018-11-12T07:50:23.856Z,8.93
2018-11-12T07:52:52.553Z,9.70
2018-11-12T07:55:22.820Z,9.20
2018-11-12T07:57:52.919Z,8.50
2018-11-12T08:00:23.404Z,9.33
2018-11-12T08:02:55.497Z,8.73
2018-11-12T08:05:24.147Z,7.73
2018-11-12T08:07:52.721Z,8.57
2018-11-12T08:10:22.209Z,8.50
2018-11-12T08:12:50.984Z,9.90
2018-11-12T08:15:20.785Z,13.97
2018-11-12T08:17:49.554Z,14.43
2018-11-12T08:20:22.673Z,14.13
2018-11-12T08:22:52.111Z,14.50
2018-11-12T08:25:21.361Z,13.67
2018-11-12T08:27:50.384Z,13.77
2018-11-12T08:30:20.286Z,18.80
2018-11-12T08:32:50.147Z,19.63
2018-11-12T08:35:18.944Z,17.50
2018-11-12T08:37:48.030Z,16.13
2018-11-12T08:40:18.549Z,18.80
2018-11-12T08:42:47.177Z,19.37
2018-11-12T08:45:15.909Z,13.23
2018-11-12T08:47:46.954Z,12.83
2018-11-12T08:50:17.592Z,16.80
2018-11-12T08:52:47.071Z,7.73
2018-11-12T08:55:17.811Z,8.03
2018-11-12T08:57:47.999Z,7.53
2018-11-12T09:00:17.174Z,7.63
2018-11-12T09:02:45.948Z,10.90
2018-11-12T09:05:15.770Z,10.13
2018-11-12T09:07:46.146Z,12.00
2018-11-12T09:10:16.641Z,11.03
2018-11-12T09:12:45.770Z,8.33
2018-11-12T09:15:15.399Z,8.27
2018-11-12T09:17:44.986Z,7.23
2018-11-12T09:20:17.096Z,8.27
2018-11-12T09:22:45.917Z,6.50
2018-11-12T09:25:15.757Z,7.30
2018-11-12T09:27:44.624Z,6.53
2018-11-12T09:30:15.335Z,7.20
2018-11-12T09:32:44.302Z,6.70
2018-11-12T09:35:15.920Z,6.37
2018-11-12T09:37:45.975Z,6.30
2018-11-12T09:40:16.323Z,7.17
2018-11-12T09:42:45.165Z,6.60
2018-11-12T09:45:13.794Z,6.80
2018-11-12T09:47:43.304Z,8.47
2018-11-12T09:50:15.551Z,7.87
2018-11-12T09:52:45.540Z,6.87
2018-11-12T09:55:14.821Z,14.07
2018-11-12T09:57:44.553Z,15.10
2018-11-12T10:00:15.121Z,11.50
2018-11-12T10:02:46.170Z,11.03
2018-11-12T10:05:15.705Z,13.20
2018-11-12T10:07:45.702Z,14.03
2018-11-12T10:10:24.719Z,13.57
2018-11-12T10:12:53.406Z,14.07
2018-11-12T10:15:23.573Z,14.47
2018-11-12T10:17:52.511Z,16.87
2018-11-12T10:20:17.794Z,13.10
2018-11-12T10:22:46.860Z,12.80
2018-11-12T10:25:15.593Z,10.23
2018-11-12T10:27:44.472Z,8.57
2018-11-12T10:30:13.163Z,8.47
2018-11-12T10:32:41.839Z,8.83
2018-11-12T10:35:11.075Z,8.37
2018-11-12T10:37:40.568Z,9.73
2018-11-12T10:40:12.968Z,8.83
2018-11-12T10:42:41.844Z,10.90
2018-11-12T10:45:10.485Z,10.53
2018-11-12T10:47:39.090Z,8.90
2018-11-12T10:50:07.823Z,10.07
2018-11-12T10:52:38.598Z,8.87
2018-11-12T10:55:09.799Z,8.30
2018-11-12T10:57:40.669Z,9.07
2018-11-12T11:00:19.372Z,9.23
2018-11-12T11:02:53.102Z,7.57
2018-11-12T11:05:21.827Z,7.57
2018-11-12T11:07:51.276Z,7.57
2018-11-12T11:10:21.747Z,8.43
2018-11-12T11:12:50.483Z,7.73
2018-11-12T11:15:19.101Z,7.30
2018-11-12T11:17:48.395Z,7.30
2018-11-12T11:20:17.155Z,9.07
2018-11-12T11:22:45.805Z,10.03
2018-11-12T11:25:14.746Z,9.63
2018-11-12T11:27:43.415Z,9.23
2018-11-12T11:30:14.482Z,9.20
2018-11-12T11:32:43.596Z,8.97
2018-11-12T11:35:13.562Z,9.23
2018-11-12T11:37:42.370Z,9.40
2018-11-12T11:40:16.403Z,10.30
2018-11-12T11:42:45.020Z,11.77
2018-11-12T11:45:15.400Z,14.27
2018-11-12T11:47:45.136Z,10.97
2018-11-12T11:50:15.327Z,10.20
2018-11-12T11:52:44.248Z,11.33
2018-11-12T11:55:16.170Z,10.27
2018-11-12T11:57:45.141Z,9.20
2018-11-12T12:00:16.828Z,9.30
2018-11-12T12:02:46.329Z,8.87
2018-11-12T12:05:16.120Z,12.70
2018-11-12T12:07:44.762Z,14.03
2018-11-12T12:10:14.518Z,12.63
2018-11-12T12:12:44.377Z,10.93
2018-11-12T12:15:15.148Z,11.37
2018-11-12T12:17:44.174Z,13.47
2018-11-12T12:20:14.368Z,14.37
2018-11-12T12:22:43.491Z,13.27
2018-11-12T12:25:14.336Z,14.40
2018-11-12T12:27:43.912Z,13.90
2018-11-12T12:30:21.820Z,11.00
2018-11-12T12:32:52.241Z,10.90
2018-11-12T12:35:21.062Z,10.43
2018-11-12T12:37:49.838Z,10.03
2018-11-12T12:40:19.936Z,8.80
2018-11-12T12:42:48.782Z,8.00
2018-11-12T12:45:18.663Z,7.93
2018-11-12T12:47:48.118Z,7.47
2018-11-12T12:50:18.356Z,7.77
2018-11-12T12:52:47.707Z,10.73
2018-11-12T12:55:17.592Z,18.37
2018-11-12T12:57:46.948Z,13.03
2018-11-12T13:00:18.066Z,12.70
2018-11-12T13:02:47.031Z,14.27
2018-11-12T13:05:15.610Z,16.90
2018-11-12T13:07:44.344Z,14.13
2018-11-12T13:10:15.279Z,12.97
2018-11-12T13:12:44.976Z,12.67
2018-11-12T13:15:15.963Z,10.90
2018-11-12T13:17:45.694Z,9.10
2018-11-12T13:20:16.261Z,6.90
2018-11-12T13:22:45.521Z,6.20
2018-11-12T13:25:14.904Z,6.00
2018-11-12T13:27:44.324Z,6.47
2018-11-12T13:30:15.130Z,6.37
2018-11-12T13:32:44.457Z,6.07
2018-11-12T13:35:14.368Z,6.83
2018-11-12T13:37:43.121Z,7.67
2018-11-12T13:40:14.978Z,9.20
2018-11-12T13:42:45.026Z,7.50
2018-11-12T13:45:14.251Z,6.83
2018-11-12T13:47:43.501Z,5.10
2018-11-12T13:50:14.689Z,6.47
2018-11-12T13:52:43.443Z,6.00
2018-11-12T13:55:13.205Z,5.57
2018-11-12T13:57:41.873Z,5.60
2018-11-12T14:00:12.654Z,4.70
2018-11-12T14:02:42.190Z,8.63
2018-11-12T14:05:13.208Z,43.60
2018-11-12T14:07:42.311Z,20.17
2018-11-12T14:10:12.625Z,10.47
2018-11-12T14:12:41.830Z,11.53
2018-11-12T14:15:12.250Z,14.77
2018-11-12T14:17:41.641Z,10.90
2018-11-12T14:20:10.469Z,15.67
2018-11-12T14:22:40.153Z,8.40
2018-11-12T14:25:10.632Z,8.87
2018-11-12T14:27:40.098Z,9.23
2018-11-12T14:30:10.931Z,6.37
2018-11-12T14:32:39.872Z,18.93
2018-11-12T14:35:09.945Z,17.33
2018-11-12T14:37:38.795Z,16.53
2018-11-12T14:40:08.980Z,11.87
2018-11-12T14:42:37.587Z,9.97
2018-11-12T14:45:07.764Z,7.50
2018-11-12T14:47:36.679Z,21.13
2018-11-12T14:50:05.793Z,40.73
2018-11-12T14:52:34.692Z,26.70
2018-11-12T14:55:03.771Z,13.73
2018-11-12T14:57:32.568Z,32.53
2018-11-12T15:00:01.840Z,22.83
2018-11-12T15:02:30.644Z,12.30
2018-11-12T15:04:59.704Z,32.37
2018-11-12T15:07:28.386Z,23.97
2018-11-12T15:09:57.440Z,9.43
2018-11-12T15:12:26.113Z,10.40
2018-11-12T15:14:55.130Z,10.50
2018-11-12T15:17:24.694Z,9.80
2018-11-12T15:19:53.461Z,8.77
2018-11-12T15:22:22.128Z,11.30
2018-11-12T15:24:50.790Z,26.93
2018-11-12T15:27:19.596Z,20.03
2018-11-12T15:29:48.414Z,13.00
2018-11-12T15:32:17.156Z,6.70
2018-11-12T15:34:45.895Z,6.00
2018-11-12T15:37:14.833Z,3.83
2018-11-12T15:39:44.284Z,3.97
2018-11-12T15:42:13.172Z,3.37
2018-11-12T15:44:41.997Z,3.33
2018-11-12T15:47:11.362Z,3.13
2018-11-12T15:49:40.012Z,2.60
2018-11-12T15:52:08.819Z,2.60
2018-11-12T15:54:37.589Z,2.17
2018-11-12T15:57:07.171Z,2.07
2018-11-12T15:59:35.918Z,1.90
2018-11-12T16:02:04.911Z,1.80
2018-11-12T16:04:33.611Z,1.90
2018-11-12T16:07:02.641Z,2.30
2018-11-12T16:09:31.292Z,2.03
2018-11-12T16:12:00.085Z,2.10
2018-11-12T16:14:28.791Z,1.90
2018-11-12T16:16:58.002Z,1.80
2018-11-12T16:19:26.989Z,1.87
2018-11-12T16:21:55.607Z,2.13
2018-11-12T16:24:24.315Z,2.20
2018-11-12T16:26:52.976Z,2.00
2018-11-12T16:29:21.942Z,1.93
2018-11-12T16:31:50.540Z,2.33
2018-11-12T16:34:19.381Z,2.20
2018-11-12T16:36:48.060Z,2.23
2018-11-12T16:39:16.947Z,2.10
2018-11-12T16:41:45.729Z,2.37
2018-11-12T16:44:14.373Z,2.00
2018-11-12T16:46:43.218Z,2.00
2018-11-12T16:49:11.951Z,2.00
2018-11-12T16:51:40.713Z,2.40
2018-11-12T16:54:09.641Z,2.30
2018-11-12T16:56:38.308Z,3.10
2018-11-12T16:59:07.558Z,3.77
2018-11-12T17:01:36.984Z,3.17
2018-11-12T17:04:05.868Z,2.80
2018-11-12T17:06:34.493Z,3.37
2018-11-12T17:09:03.410Z,3.00
2018-11-12T17:11:32.102Z,3.97
2018-11-12T17:14:01.033Z,3.60
2018-11-12T17:16:29.760Z,5.80
2018-11-12T17:18:58.527Z,5.17
2018-11-12T17:21:27.959Z,3.07
2018-11-12T17:23:56.962Z,3.03
2018-11-12T17:26:26.008Z,2.70
2018-11-12T17:28:54.948Z,2.60
2018-11-12T17:31:24.908Z,2.40
2018-11-12T17:33:53.737Z,2.50
2018-11-12T17:36:23.256Z,2.20
2018-11-12T17:38:51.882Z,2.40
2018-11-12T17:41:20.631Z,2.30
2018-11-12T17:43:49.684Z,2.40
2018-11-12T17:46:18.321Z,2.73
2018-11-12T17:48:47.344Z,2.30
2018-11-12T17:51:16.495Z,2.60
2018-11-12T17:53:45.883Z,2.30
2018-11-12T17:56:14.785Z,2.90
2018-11-12T17:58:43.851Z,2.43
2018-11-12T18:01:12.772Z,2.33
2018-11-12T18:03:41.669Z,2.87
2018-11-12T18:06:10.301Z,2.50
2018-11-12T18:08:38.888Z,2.37
2018-11-12T18:11:07.625Z,2.60
2018-11-12T18:13:36.908Z,2.83
2018-11-12T18:16:05.728Z,3.07
2018-11-12T18:18:34.583Z,2.40
2018-11-12T18:21:04.013Z,3.13
2018-11-12T18:23:32.979Z,3.03
2018-11-12T18:26:01.866Z,3.10
2018-11-12T18:28:31.108Z,2.57
2018-11-12T18:31:00.022Z,2.70
2018-11-12T18:33:28.821Z,2.73
2018-11-12T18:35:57.617Z,3.03
2018-11-12T18:38:26.296Z,2.83
2018-11-12T18:40:55.242Z,2.47
2018-11-12T18:43:24.127Z,3.13
2018-11-12T18:45:53.711Z,3.07
2018-11-12T18:48:22.851Z,2.60
2018-11-12T18:50:51.700Z,2.67
2018-11-12T18:53:20.437Z,2.90
2018-11-12T18:55:49.542Z,2.60
2018-11-12T18:58:18.949Z,2.80
2018-11-12T19:00:47.737Z,2.70
2018-11-12T19:03:17.413Z,2.80
2018-11-12T19:05:46.555Z,2.47
2018-11-12T19:08:16.214Z,2.73
2018-11-12T19:10:45.025Z,3.03
2018-11-12T19:13:14.003Z,2.57
2018-11-12T19:15:42.940Z,2.90
2018-11-12T19:18:13.557Z,3.03
2018-11-12T19:20:42.701Z,2.53
2018-11-12T19:23:11.574Z,3.33
2018-11-12T19:25:40.168Z,3.20
2018-11-12T19:28:08.982Z,2.97
2018-11-12T19:30:37.889Z,2.87
2018-11-12T19:33:06.953Z,3.60
2018-11-12T19:35:35.874Z,2.90
2018-11-12T19:38:04.775Z,2.90
2018-11-12T19:40:34.027Z,3.40
2018-11-12T19:43:03.096Z,3.20
2018-11-12T19:45:32.051Z,3.00
2018-11-12T19:48:00.909Z,2.53
2018-11-12T19:50:30.401Z,3.00
2018-11-12T19:53:00.057Z,3.30
2018-11-12T19:55:29.339Z,3.23
2018-11-12T19:57:58.458Z,2.77
2018-11-12T20:00:28.558Z,3.20
2018-11-12T20:02:58.689Z,3.10
2018-11-12T20:05:27.398Z,3.03
2018-11-12T20:07:56.235Z,2.83
2018-11-12T20:10:25.608Z,3.17
2018-11-12T20:12:54.634Z,2.70
2018-11-12T20:15:24.529Z,2.90
2018-11-12T20:17:54.492Z,3.30
2018-11-12T20:20:25.002Z,3.47
2018-11-12T20:22:54.340Z,3.67
2018-11-12T20:25:23.585Z,3.67
2018-11-12T20:27:53.650Z,3.50
2018-11-12T20:30:25.652Z,4.30
2018-11-12T20:32:54.976Z,3.60
2018-11-12T20:35:23.825Z,3.67
2018-11-12T20:37:52.703Z,3.87
2018-11-12T20:40:21.945Z,4.20
2018-11-12T20:42:51.039Z,3.93
2018-11-12T20:45:21.152Z,3.40
2018-11-12T20:47:51.175Z,4.00
2018-11-12T20:50:20.200Z,3.17
2018-11-12T20:52:48.978Z,3.17
2018-11-12T20:55:18.248Z,3.03
2018-11-12T20:57:47.115Z,3.40
2018-11-12T21:00:20.634Z,3.60
2018-11-12T21:02:50.605Z,3.77
2018-11-12T21:05:20.993Z,4.23
2018-11-12T21:07:49.937Z,3.53
2018-11-12T21:10:19.202Z,3.93
2018-11-12T21:12:48.353Z,3.30
2018-11-12T21:15:18.112Z,3.17
2018-11-12T21:17:46.646Z,3.53
2018-11-12T21:20:16.723Z,3.17
2018-11-12T21:22:45.356Z,3.37
2018-11-12T21:25:15.622Z,3.70
2018-11-12T21:27:44.425Z,3.30
2018-11-12T21:30:15.685Z,3.40
2018-11-12T21:32:45.287Z,3.57
2018-11-12T21:35:14.562Z,3.43
2018-11-12T21:37:43.529Z,3.20
2018-11-12T21:40:14.716Z,3.10
2018-11-12T21:42:43.634Z,3.40
2018-11-12T21:45:13.757Z,3.30
2018-11-12T21:47:43.566Z,3.63
2018-11-12T21:50:14.121Z,3.73
2018-11-12T21:52:42.979Z,3.33
2018-11-12T21:55:12.085Z,3.20
2018-11-12T21:57:41.465Z,3.50
2018-11-12T22:00:19.021Z,3.07
2018-11-12T22:02:48.973Z,3.47
2018-11-12T22:05:17.663Z,3.00
2018-11-12T22:07:46.953Z,3.67
2018-11-12T22:10:16.548Z,3.20
2018-11-12T22:12:46.550Z,3.23
2018-11-12T22:15:15.679Z,3.13
2018-11-12T22:17:44.333Z,3.60
2018-11-12T22:20:15.041Z,3.07
2018-11-12T22:22:44.136Z,3.60
2018-11-12T22:25:16.138Z,3.37
2018-11-12T22:27:45.425Z,3.67
2018-11-12T22:30:18.693Z,3.90
2018-11-12T22:32:48.610Z,4.10
2018-11-12T22:35:17.199Z,4.30
2018-11-12T22:37:46.182Z,4.50
2018-11-12T22:40:16.252Z,3.47
2018-11-12T22:42:46.395Z,3.67
2018-11-12T22:45:19.037Z,4.23
2018-11-12T22:47:48.403Z,4.00
2018-11-12T22:50:17.094Z,3.80
2018-11-12T22:52:46.152Z,3.80
2018-11-12T22:55:16.800Z,3.60
2018-11-12T22:57:45.317Z,3.57
2018-11-12T23:00:25.541Z,3.40
2018-11-12T23:02:54.719Z,3.67
2018-11-12T23:05:24.262Z,3.30
2018-11-12T23:07:53.642Z,3.43
2018-11-12T23:10:22.536Z,3.43
2018-11-12T23:12:51.522Z,3.97
2018-11-12T23:15:20.914Z,3.40
2018-11-12T23:17:49.800Z,3.73
2018-11-12T23:20:19.931Z,3.87
2018-11-12T23:22:49.319Z,3.77
2018-11-12T23:25:18.103Z,3.93
2018-11-12T23:27:47.456Z,4.10
2018-11-12T23:30:17.476Z,4.03
2018-11-12T23:32:46.039Z,4.00
2018-11-12T23:35:16.744Z,3.63
2018-11-12T23:37:46.025Z,4.00
2018-11-12T23:40:14.820Z,3.93
2018-11-12T23:42:44.844Z,4.10
2018-11-12T23:45:13.462Z,3.60
2018-11-12T23:47:42.547Z,3.20
2018-11-12T23:50:15.487Z,3.57
2018-11-12T23:52:45.152Z,3.30
2018-11-12T23:55:14.098Z,4.33
2018-11-12T23:57:43.284Z,6.90
